createdAt,value
2023-01-30T00:02:13.783Z,10.37
2023-01-30T00:04:43.175Z,11.73
2023-01-30T00:07:11.394Z,10.20
2023-01-30T00:09:41.121Z,12.07
2023-01-30T00:12:09.184Z,10.57
2023-01-30T00:14:37.193Z,10.43
2023-01-30T00:17:05.154Z,11.13
2023-01-30T00:19:33.117Z,11.60
2023-01-30T00:22:02.457Z,11.30
2023-01-30T00:24:30.487Z,9.97
2023-01-30T00:26:58.586Z,10.47
2023-01-30T00:29:26.556Z,9.77
2023-01-30T00:31:54.694Z,9.47
2023-01-30T00:34:22.747Z,10.23
2023-01-30T00:37:02.518Z,11.27
2023-01-30T00:39:36.696Z,10.60
2023-01-30T00:42:22.447Z,11.20
2023-01-30T00:45:07.957Z,9.97
2023-01-30T00:47:35.962Z,10.23
2023-01-30T00:50:04.093Z,10.40
2023-01-30T00:52:32.044Z,12.17
2023-01-30T00:55:01.323Z,11.03
2023-01-30T00:57:29.305Z,11.50
2023-01-30T00:59:57.528Z,11.10
2023-01-30T01:02:25.501Z,11.90
2023-01-30T01:04:53.487Z,10.70
2023-01-30T01:07:22.095Z,11.93
2023-01-30T01:09:50.081Z,10.50
2023-01-30T01:12:19.455Z,9.57
2023-01-30T01:14:47.463Z,10.20
2023-01-30T01:17:15.559Z,11.17
2023-01-30T01:19:43.543Z,10.13
2023-01-30T01:22:11.564Z,11.47
2023-01-30T01:24:39.500Z,11.30
2023-01-30T01:27:07.584Z,11.13
2023-01-30T01:29:36.849Z,10.93
2023-01-30T01:32:05.316Z,10.43
2023-01-30T01:34:33.290Z,9.37
2023-01-30T01:37:01.237Z,9.70
2023-01-30T01:39:49.252Z,10.77
2023-01-30T01:42:16.782Z,11.00
2023-01-30T01:45:05.589Z,11.53
2023-01-30T01:47:35.649Z,10.73
2023-01-30T01:50:04.074Z,9.57
2023-01-30T01:52:32.411Z,11.10
2023-01-30T01:55:04.028Z,9.20
2023-01-30T01:57:39.071Z,8.87
2023-01-30T02:00:13.733Z,8.07
2023-01-30T02:02:45.160Z,8.57
2023-01-30T02:05:15.936Z,9.87
2023-01-30T02:07:49.193Z,9.10
2023-01-30T02:10:20.953Z,8.60
2023-01-30T02:12:50.518Z,8.80
2023-01-30T02:15:21.379Z,9.93
2023-01-30T02:17:52.493Z,10.27
2023-01-30T02:20:31.990Z,10.23
2023-01-30T02:23:43.987Z,9.30
2023-01-30T02:26:47.215Z,10.40
2023-01-30T02:30:25.646Z,9.23
2023-01-30T02:33:08.359Z,8.67
2023-01-30T02:35:49.912Z,8.60
2023-01-30T02:38:33.048Z,10.20
2023-01-30T02:41:12.759Z,10.60
2023-01-30T02:43:48.175Z,9.73
2023-01-30T02:46:22.362Z,10.30
2023-01-30T02:48:57.925Z,7.63
2023-01-30T02:51:31.083Z,9.00
2023-01-30T02:54:00.491Z,10.07
2023-01-30T02:56:28.688Z,9.93
2023-01-30T02:59:00.920Z,8.73
2023-01-30T03:01:49.946Z,9.40
2023-01-30T03:04:50.201Z,11.43
2023-01-30T03:07:35.769Z,10.30
2023-01-30T03:10:09.696Z,8.30
2023-01-30T03:12:50.124Z,9.50
2023-01-30T03:15:25.335Z,9.90
2023-01-30T03:17:54.146Z,9.97
2023-01-30T03:20:23.763Z,7.80
2023-01-30T03:22:51.776Z,10.23
2023-01-30T03:25:23.482Z,9.70
2023-01-30T03:27:54.179Z,8.60
2023-01-30T03:30:23.700Z,7.50
2023-01-30T03:32:51.719Z,10.83
2023-01-30T03:35:20.149Z,8.60
2023-01-30T03:37:49.805Z,9.57
2023-01-30T03:40:19.160Z,10.00
2023-01-30T03:42:48.244Z,9.30
2023-01-30T03:45:16.763Z,7.67
2023-01-30T03:47:44.950Z,10.20
2023-01-30T03:50:13.412Z,9.07
2023-01-30T03:52:41.373Z,7.83
2023-01-30T03:55:11.912Z,9.30
2023-01-30T03:57:39.897Z,10.20
2023-01-30T04:00:09.833Z,9.07
2023-01-30T04:02:38.676Z,9.67
2023-01-30T04:05:07.658Z,10.03
2023-01-30T04:07:35.633Z,9.67
2023-01-30T04:10:03.614Z,9.70
2023-01-30T04:12:32.933Z,9.30
2023-01-30T04:15:00.904Z,8.37
2023-01-30T04:17:29.009Z,8.07
2023-01-30T04:19:56.954Z,8.40
2023-01-30T04:22:24.949Z,9.87
2023-01-30T04:24:52.969Z,9.27
2023-01-30T04:27:20.945Z,8.60
2023-01-30T04:29:50.269Z,8.77
2023-01-30T04:32:18.295Z,9.10
2023-01-30T04:34:46.275Z,9.40
2023-01-30T04:37:14.653Z,9.07
2023-01-30T04:39:42.628Z,9.23
2023-01-30T04:42:10.564Z,9.07
2023-01-30T04:44:38.521Z,9.77
2023-01-30T04:47:07.855Z,8.87
2023-01-30T04:49:35.837Z,8.70
2023-01-30T04:52:04.005Z,9.00
2023-01-30T04:54:31.968Z,9.47
2023-01-30T04:56:59.955Z,8.83
2023-01-30T04:59:27.935Z,11.07
2023-01-30T05:01:56.707Z,9.27
2023-01-30T05:04:25.999Z,9.07
2023-01-30T05:06:53.984Z,7.80
2023-01-30T05:09:22.034Z,8.80
2023-01-30T05:11:49.988Z,8.20
2023-01-30T05:14:18.235Z,10.70
2023-01-30T05:16:46.221Z,9.30
2023-01-30T05:19:14.337Z,9.03
2023-01-30T05:21:43.669Z,9.23
2023-01-30T05:24:13.892Z,9.20
2023-01-30T05:26:41.887Z,9.50
2023-01-30T05:29:12.024Z,8.03
2023-01-30T05:31:40.083Z,8.30
2023-01-30T05:34:08.087Z,9.23
2023-01-30T05:36:36.008Z,8.80
2023-01-30T05:39:05.603Z,9.27
2023-01-30T05:41:33.603Z,9.17
2023-01-30T05:44:01.597Z,11.53
2023-01-30T05:46:29.561Z,9.40
2023-01-30T05:48:57.779Z,7.93
2023-01-30T05:51:27.774Z,7.80
2023-01-30T05:53:56.267Z,9.37
2023-01-30T05:56:25.630Z,9.53
2023-01-30T05:58:55.621Z,7.63
2023-01-30T06:01:24.531Z,8.47
2023-01-30T06:03:52.695Z,8.10
2023-01-30T06:06:21.517Z,8.60
2023-01-30T06:08:53.482Z,9.13
2023-01-30T06:11:21.606Z,6.60
2023-01-30T06:13:51.385Z,8.70
2023-01-30T06:16:20.890Z,6.83
2023-01-30T06:18:49.003Z,7.57
2023-01-30T06:21:17.721Z,7.50
2023-01-30T06:23:46.362Z,7.10
2023-01-30T06:26:14.521Z,6.40
2023-01-30T06:28:42.770Z,6.57
2023-01-30T06:31:12.237Z,7.10
2023-01-30T06:33:40.319Z,6.00
2023-01-30T06:36:09.417Z,5.33
2023-01-30T06:38:37.436Z,6.20
2023-01-30T06:41:05.760Z,6.90
2023-01-30T06:43:33.782Z,7.03
2023-01-30T06:46:01.952Z,6.80
2023-01-30T06:48:31.565Z,5.67
2023-01-30T06:50:59.654Z,6.10
2023-01-30T06:53:30.533Z,7.30
2023-01-30T06:55:59.294Z,6.17
2023-01-30T06:58:27.688Z,5.80
2023-01-30T07:00:55.706Z,5.43
2023-01-30T07:03:24.207Z,5.90
2023-01-30T07:05:53.538Z,5.47
2023-01-30T07:08:23.359Z,5.70
2023-01-30T07:10:52.421Z,6.07
2023-01-30T07:13:20.825Z,4.43
2023-01-30T07:15:48.853Z,5.97
2023-01-30T07:18:16.896Z,6.20
2023-01-30T07:20:48.531Z,5.33
2023-01-30T07:23:17.986Z,6.43
2023-01-30T07:25:46.188Z,5.37
2023-01-30T07:28:14.246Z,5.20
2023-01-30T07:30:42.314Z,6.47
2023-01-30T07:33:10.600Z,6.67
2023-01-30T07:35:39.118Z,6.37
2023-01-30T07:38:07.498Z,6.13
2023-01-30T07:40:37.027Z,6.33
2023-01-30T07:43:08.383Z,6.00
2023-01-30T07:45:41.209Z,6.33
2023-01-30T07:48:10.873Z,6.27
2023-01-30T07:50:39.693Z,7.10
2023-01-30T07:53:10.521Z,7.53
2023-01-30T07:55:40.139Z,7.00
2023-01-30T07:58:08.427Z,8.60
2023-01-30T08:00:36.447Z,8.73
2023-01-30T08:03:04.632Z,6.80
2023-01-30T08:05:33.366Z,8.10
2023-01-30T08:08:01.787Z,9.50
2023-01-30T08:10:29.845Z,8.10
2023-01-30T08:12:59.187Z,8.20
2023-01-30T08:15:27.287Z,6.53
2023-01-30T08:17:56.554Z,6.57
2023-01-30T08:20:25.138Z,7.73
2023-01-30T08:22:54.105Z,6.43
2023-01-30T08:25:22.536Z,6.60
2023-01-30T08:27:50.756Z,4.63
2023-01-30T08:30:22.494Z,6.43
2023-01-30T08:32:50.807Z,5.50
2023-01-30T08:35:19.066Z,5.03
2023-01-30T08:37:47.255Z,5.30
2023-01-30T08:40:16.307Z,5.07
2023-01-30T08:42:46.187Z,4.40
2023-01-30T08:45:14.347Z,3.87
2023-01-30T08:47:43.833Z,4.87
2023-01-30T08:50:12.719Z,4.90
2023-01-30T08:52:40.726Z,5.70
2023-01-30T08:55:10.299Z,7.10
2023-01-30T08:57:38.394Z,5.80
2023-01-30T09:00:09.027Z,7.10
2023-01-30T09:02:37.168Z,5.33
2023-01-30T09:05:08.189Z,6.00
2023-01-30T09:07:36.325Z,7.97
2023-01-30T09:10:05.166Z,8.07
2023-01-30T09:12:33.267Z,3.80
2023-01-30T09:15:01.290Z,14.23
2023-01-30T09:17:29.402Z,5.00
2023-01-30T09:19:57.406Z,4.43
2023-01-30T09:22:27.017Z,11.80
2023-01-30T09:24:55.078Z,6.40
2023-01-30T09:27:23.068Z,6.13
2023-01-30T09:29:51.054Z,4.30
2023-01-30T09:32:19.003Z,2.80
2023-01-30T09:34:47.081Z,3.70
2023-01-30T09:37:15.174Z,6.00
2023-01-30T09:39:44.552Z,3.53
2023-01-30T09:42:51.822Z,2.83
2023-01-30T09:45:46.794Z,3.43
2023-01-30T09:48:25.229Z,4.50
2023-01-30T09:51:21.147Z,3.10
2023-01-30T09:54:29.063Z,4.00
2023-01-30T09:57:21.391Z,2.93
2023-01-30T10:00:08.379Z,2.90
2023-01-30T10:02:48.846Z,2.80
2023-01-30T10:05:17.178Z,3.50
2023-01-30T10:08:42.496Z,2.37
2023-01-30T10:11:23.432Z,1.87
2023-01-30T10:14:27.134Z,1.60
2023-01-30T10:17:05.423Z,1.97
2023-01-30T10:20:17.143Z,1.50
2023-01-30T10:22:57.103Z,2.27
2023-01-30T10:25:34.045Z,2.20
2023-01-30T10:28:13.115Z,1.83
2023-01-30T10:30:46.063Z,3.80
2023-01-30T10:33:22.097Z,1.87
2023-01-30T10:36:01.284Z,6.17
2023-01-30T10:38:36.849Z,7.30
2023-01-30T10:41:16.077Z,3.47
2023-01-30T10:43:48.758Z,9.27
2023-01-30T10:46:36.279Z,2.20
2023-01-30T10:49:10.301Z,2.30
2023-01-30T10:51:51.595Z,1.23
2023-01-30T10:54:26.178Z,2.23
2023-01-30T10:57:03.604Z,2.20
2023-01-30T10:59:45.512Z,5.37
2023-01-30T11:02:26.281Z,6.80
2023-01-30T11:05:00.155Z,1.47
2023-01-30T11:07:32.758Z,2.20
2023-01-30T11:10:02.072Z,1.40
2023-01-30T11:12:30.084Z,2.80
2023-01-30T11:15:00.404Z,1.80
2023-01-30T11:17:36.463Z,3.47
2023-01-30T11:20:13.589Z,1.77
2023-01-30T11:22:49.155Z,1.60
2023-01-30T11:25:21.039Z,2.77
2023-01-30T11:27:56.337Z,2.60
2023-01-30T11:30:29.672Z,2.67
2023-01-30T11:33:14.386Z,1.50
2023-01-30T11:35:54.601Z,6.50
2023-01-30T11:38:26.299Z,2.37
2023-01-30T11:41:06.245Z,1.73
2023-01-30T11:43:37.080Z,1.67
2023-01-30T11:46:06.878Z,1.17
2023-01-30T11:49:03.359Z,1.80
2023-01-30T11:51:36.117Z,1.20
2023-01-30T11:54:07.291Z,1.70
2023-01-30T11:56:39.628Z,1.30
2023-01-30T11:59:22.924Z,0.90
2023-01-30T12:01:52.042Z,1.27
2023-01-30T12:04:24.124Z,1.50
2023-01-30T12:07:09.156Z,0.87
2023-01-30T12:09:40.959Z,1.10
2023-01-30T12:12:36.226Z,0.90
2023-01-30T12:15:21.291Z,1.10
2023-01-30T12:17:59.575Z,1.70
2023-01-30T12:20:46.868Z,1.63
2023-01-30T12:23:20.804Z,1.73
2023-01-30T12:26:00.134Z,1.90
2023-01-30T12:28:40.076Z,3.23
2023-01-30T12:31:16.075Z,1.10
2023-01-30T12:33:45.276Z,1.57
2023-01-30T12:36:28.263Z,12.90
2023-01-30T12:39:15.578Z,5.50
2023-01-30T12:41:59.973Z,3.73
2023-01-30T12:45:03.071Z,2.43
2023-01-30T12:47:59.783Z,5.20
2023-01-30T12:50:45.338Z,5.30
2023-01-30T12:53:42.796Z,1.20
2023-01-30T12:56:38.743Z,1.37
2023-01-30T12:59:16.846Z,2.10
2023-01-30T13:01:59.288Z,1.40
2023-01-30T13:04:56.419Z,1.40
2023-01-30T13:07:42.626Z,1.33
2023-01-30T13:10:20.925Z,1.40
2023-01-30T13:13:03.127Z,1.27
2023-01-30T13:15:41.326Z,2.10
2023-01-30T13:18:16.161Z,1.70
2023-01-30T13:20:58.108Z,1.70
2023-01-30T13:23:42.769Z,2.13
2023-01-30T13:26:14.903Z,1.90
2023-01-30T13:28:48.724Z,1.67
2023-01-30T13:31:21.518Z,5.50
2023-01-30T13:33:59.260Z,3.87
2023-01-30T13:36:34.894Z,10.47
2023-01-30T13:39:12.054Z,2.20
2023-01-30T13:41:47.865Z,3.17
2023-01-30T13:44:22.396Z,4.00
2023-01-30T13:46:54.761Z,2.57
2023-01-30T13:49:31.165Z,1.47
2023-01-30T13:52:04.366Z,1.07
2023-01-30T13:54:50.959Z,1.10
2023-01-30T13:57:36.402Z,1.87
2023-01-30T14:00:25.863Z,1.60
2023-01-30T14:03:17.855Z,1.40
2023-01-30T14:06:11.077Z,1.43
2023-01-30T14:08:51.110Z,1.40
2023-01-30T14:11:49.514Z,1.50
2023-01-30T14:14:31.816Z,2.07
2023-01-30T14:17:12.482Z,6.27
2023-01-30T14:20:02.916Z,3.73
2023-01-30T14:22:41.255Z,1.80
2023-01-30T14:25:35.287Z,4.10
2023-01-30T14:28:51.936Z,2.10
2023-01-30T14:31:54.944Z,1.37
2023-01-30T14:35:03.556Z,1.40
2023-01-30T14:38:14.450Z,2.27
2023-01-30T14:41:16.957Z,1.20
2023-01-30T14:43:54.018Z,1.20
2023-01-30T14:46:54.303Z,1.37
2023-01-30T14:49:32.969Z,1.53
2023-01-30T14:52:03.758Z,1.70
2023-01-30T14:54:49.560Z,2.07
2023-01-30T14:57:24.963Z,1.40
2023-01-30T15:02:52.925Z,4.97
2023-01-30T15:05:31.471Z,3.20
2023-01-30T15:08:06.700Z,1.80
2023-01-30T15:11:06.957Z,2.27
2023-01-30T15:13:56.295Z,2.37
2023-01-30T15:16:45.642Z,1.40
2023-01-30T15:19:37.034Z,3.13
2023-01-30T15:22:19.957Z,1.70
2023-01-30T15:25:26.637Z,2.00
2023-01-30T15:28:05.619Z,1.90
2023-01-30T15:30:47.646Z,1.90
2023-01-30T15:33:29.489Z,3.27
2023-01-30T15:35:58.526Z,1.93
2023-01-30T15:38:31.589Z,2.73
2023-01-30T15:41:02.824Z,1.83
2023-01-30T15:43:58.235Z,5.00
2023-01-30T15:46:36.644Z,4.47
2023-01-30T15:49:41.077Z,5.60
2023-01-30T15:52:18.264Z,2.27
2023-01-30T15:54:54.739Z,2.60
2023-01-30T15:57:30.038Z,3.77
2023-01-30T16:00:01.218Z,3.63
2023-01-30T16:02:35.091Z,3.30
2023-01-30T16:05:18.666Z,3.00
2023-01-30T16:07:51.030Z,5.33
2023-01-30T16:10:25.052Z,10.57
2023-01-30T16:12:56.488Z,6.37
2023-01-30T16:15:30.966Z,3.37
2023-01-30T16:21:02.084Z,14.93
2023-01-30T16:23:35.917Z,2.83
2023-01-30T16:26:08.296Z,3.73
2023-01-30T16:28:36.888Z,2.70
2023-01-30T16:31:09.284Z,2.90
2023-01-30T16:33:38.120Z,2.20
2023-01-30T16:36:30.124Z,2.50
2023-01-30T16:38:58.381Z,2.27
2023-01-30T16:41:33.936Z,2.00
2023-01-30T16:44:15.816Z,2.20
2023-01-30T16:46:50.804Z,2.80
2023-01-30T16:49:23.777Z,3.17
2023-01-30T16:52:02.102Z,2.20
2023-01-30T16:54:32.579Z,2.67
2023-01-30T16:57:04.281Z,1.93
2023-01-30T16:59:34.231Z,2.17
2023-01-30T17:02:05.855Z,1.60
2023-01-30T17:04:35.756Z,1.97
2023-01-30T17:07:05.868Z,2.00
2023-01-30T17:09:45.861Z,2.10
2023-01-30T17:12:50.018Z,2.17
2023-01-30T17:15:36.302Z,2.20
2023-01-30T17:18:04.531Z,2.40
2023-01-30T17:20:47.562Z,5.40
2023-01-30T17:23:20.586Z,6.10
2023-01-30T17:25:50.467Z,6.43
2023-01-30T17:28:24.403Z,6.17
2023-01-30T17:30:53.116Z,3.50
2023-01-30T17:33:21.456Z,5.83
2023-01-30T17:35:49.621Z,8.67
2023-01-30T17:38:18.102Z,3.20
2023-01-30T17:40:46.940Z,2.57
2023-01-30T17:43:15.961Z,3.40
2023-01-30T17:45:45.916Z,2.90
2023-01-30T17:48:14.378Z,2.30
2023-01-30T17:50:43.547Z,2.00
2023-01-30T17:53:12.006Z,2.80
2023-01-30T17:55:40.746Z,3.20
2023-01-30T17:58:19.839Z,3.60
2023-01-30T18:00:51.102Z,3.00
2023-01-30T18:03:19.752Z,2.47
2023-01-30T18:05:49.426Z,8.37
2023-01-30T18:08:17.468Z,3.43
2023-01-30T18:10:45.505Z,2.93
2023-01-30T18:13:13.510Z,2.57
2023-01-30T18:15:41.540Z,4.90
2023-01-30T18:18:16.031Z,4.37
2023-01-30T18:20:44.007Z,4.30
2023-01-30T18:23:12.006Z,4.17
2023-01-30T18:25:39.984Z,5.03
2023-01-30T18:28:11.278Z,3.50
2023-01-30T18:30:39.288Z,2.30
2023-01-30T18:33:07.550Z,2.90
2023-01-30T18:35:40.576Z,2.60
2023-01-30T18:38:08.888Z,11.30
2023-01-30T18:40:41.961Z,8.50
2023-01-30T18:43:10.818Z,7.17
2023-01-30T18:45:42.418Z,5.33
2023-01-30T18:48:13.283Z,2.40
2023-01-30T18:50:44.433Z,2.30
2023-01-30T18:53:12.914Z,1.87
2023-01-30T18:55:50.466Z,7.80
2023-01-30T18:58:18.627Z,4.20
2023-01-30T19:00:49.481Z,3.33
2023-01-30T19:03:20.667Z,2.53
2023-01-30T19:05:52.486Z,2.30
2023-01-30T19:08:23.804Z,2.20
2023-01-30T19:10:53.463Z,1.70
2023-01-30T19:13:33.032Z,2.40
2023-01-30T19:16:03.403Z,2.00
2023-01-30T19:18:34.568Z,2.47
2023-01-30T19:21:05.436Z,1.63
2023-01-30T19:23:34.657Z,2.70
2023-01-30T19:26:03.013Z,2.57
2023-01-30T19:28:33.937Z,1.87
2023-01-30T19:31:07.486Z,1.77
2023-01-30T19:33:37.545Z,1.90
2023-01-30T19:36:13.101Z,2.13
2023-01-30T19:38:43.810Z,2.07
2023-01-30T19:41:14.690Z,5.00
2023-01-30T19:43:43.329Z,4.10
2023-01-30T19:46:15.552Z,3.00
2023-01-30T19:48:47.089Z,2.60
2023-01-30T19:51:21.690Z,3.00
2023-01-30T19:53:54.982Z,2.27
2023-01-30T19:56:25.914Z,3.50
2023-01-30T19:58:58.808Z,2.90
2023-01-30T20:01:33.144Z,2.73
2023-01-30T20:04:03.307Z,3.37
2023-01-30T20:06:35.697Z,2.37
2023-01-30T20:09:09.542Z,2.63
2023-01-30T20:11:41.661Z,2.27
2023-01-30T20:14:12.386Z,1.93
2023-01-30T20:16:42.186Z,1.93
2023-01-30T20:19:14.720Z,2.00
2023-01-30T20:21:45.357Z,3.83
2023-01-30T20:24:13.796Z,2.50
2023-01-30T20:26:42.115Z,2.10
2023-01-30T20:29:12.506Z,1.77
2023-01-30T20:31:40.679Z,1.60
2023-01-30T20:34:12.829Z,1.23
2023-01-30T20:36:40.866Z,2.10
2023-01-30T20:39:10.497Z,1.80
2023-01-30T20:41:38.851Z,2.60
2023-01-30T20:44:09.380Z,1.43
2023-01-30T20:46:41.362Z,2.40
2023-01-30T20:49:14.628Z,2.13
2023-01-30T20:51:43.368Z,2.20
2023-01-30T20:54:15.286Z,2.10
2023-01-30T20:56:45.976Z,2.90
2023-01-30T20:59:16.756Z,1.67
2023-01-30T21:01:45.805Z,2.00
2023-01-30T21:04:16.204Z,2.57
2023-01-30T21:06:46.801Z,3.00
2023-01-30T21:09:18.894Z,2.00
2023-01-30T21:11:47.251Z,2.30
2023-01-30T21:14:16.802Z,1.30
2023-01-30T21:16:45.058Z,2.87
2023-01-30T21:19:16.465Z,3.40
2023-01-30T21:21:50.198Z,1.77
2023-01-30T21:24:25.256Z,1.60
2023-01-30T21:26:53.921Z,2.50
2023-01-30T21:29:24.912Z,2.57
2023-01-30T21:31:53.430Z,1.80
2023-01-30T21:34:21.596Z,2.40
2023-01-30T21:37:09.767Z,2.60
2023-01-30T21:39:56.922Z,1.40
2023-01-30T21:42:42.372Z,1.80
2023-01-30T21:45:10.650Z,1.90
2023-01-30T21:47:38.896Z,1.80
2023-01-30T21:50:08.185Z,1.77
2023-01-30T21:52:36.884Z,1.57
2023-01-30T21:55:07.229Z,2.07
2023-01-30T21:57:35.257Z,2.37
2023-01-30T22:00:03.533Z,2.70
2023-01-30T22:02:31.519Z,1.70
2023-01-30T22:04:59.691Z,2.40
2023-01-30T22:07:27.657Z,1.97
2023-01-30T22:09:55.707Z,2.10
2023-01-30T22:12:26.462Z,1.70
2023-01-30T22:14:54.895Z,2.20
2023-01-30T22:17:22.991Z,2.10
2023-01-30T22:19:51.042Z,2.60
2023-01-30T22:22:20.537Z,1.93
2023-01-30T22:24:49.564Z,2.07
2023-01-30T22:27:17.586Z,2.20
2023-01-30T22:29:46.946Z,1.47
2023-01-30T22:32:15.047Z,1.83
2023-01-30T22:34:43.012Z,1.63
2023-01-30T22:37:11.014Z,1.33
2023-01-30T22:39:40.302Z,2.03
2023-01-30T22:42:08.915Z,2.17
2023-01-30T22:44:37.094Z,1.77
2023-01-30T22:47:06.526Z,2.60
2023-01-30T22:49:34.512Z,1.70
2023-01-30T22:52:02.586Z,1.53
2023-01-30T22:54:30.552Z,2.00
2023-01-30T22:56:58.507Z,1.97
2023-01-30T22:59:26.551Z,2.00
2023-01-30T23:01:54.538Z,1.50
2023-01-30T23:04:25.008Z,2.37
2023-01-30T23:06:53.611Z,2.03
2023-01-30T23:09:23.950Z,2.20
2023-01-30T23:12:12.668Z,1.67
2023-01-30T23:14:42.189Z,1.60
2023-01-30T23:17:24.541Z,2.20
2023-01-30T23:19:54.637Z,2.33
2023-01-30T23:22:22.764Z,2.47
2023-01-30T23:24:51.077Z,1.53
2023-01-30T23:27:19.694Z,2.33
2023-01-30T23:29:47.776Z,1.97
2023-01-30T23:32:18.858Z,1.77
2023-01-30T23:34:47.094Z,1.80
2023-01-30T23:37:16.952Z,1.50
2023-01-30T23:39:45.064Z,1.47
2023-01-30T23:42:13.068Z,2.30
2023-01-30T23:44:41.095Z,1.30
2023-01-30T23:47:09.062Z,1.30
2023-01-30T23:49:37.665Z,1.83
2023-01-30T23:52:06.101Z,1.10
2023-01-30T23:54:35.500Z,2.17
2023-01-30T23:57:03.472Z,1.73
2023-01-30T23:59:31.594Z,1.77
